Taldom, Russia
Current Conditions -  °F | °C
As of 11:00 AM on Thursday 23 Oct 2014 (Local Time) from UUEE Reporting Station
Light Snow Light Snow  
Wind Chill:   Ceiling: 1500
Heat Index: 16°   Visibility: 6mi
Dew Point:   Wind: 11mph
Humidity: 73%   Direction: 330°NNW
Pressure: 30.27"   Gusts: NA
Location:  56.73°N, 37.53°E
Report Text: UUEE 230800Z 33005MPS 9999 -SN BKN015 M09/M13 Q1025 2541015175410162 NOSIG
Loading
Personal Weather Stations






























Interactive Weather Map
Tropical Storm Tracking
New forecast layout! Learn more

10-Day Weather Forecast

Advertisements
Track Severe Weather on mobile